Time;durP1;ratioP1;P1;durP2;ratioP2;P2;SDS_P1;SDS_P2;PMS_P1;PMS_P2;Temp;Humidity;BMP_temperature;BMP_pressure;BME280_temperature;BME280_humidity;BME280_pressure;Samples;Min_cycle;Max_cycle;Signal;HPM_P1;HPM_P2
2021/09/08 00:01:58;;;;;;;13.50;11.63;;;15.30;99.90;;;;;;4913908;29;20032;-74
2021/09/08 00:04:24;;;;;;;13.68;11.50;;;15.30;99.90;;;;;;4914617;29;20517;-74
2021/09/08 00:06:49;;;;;;;13.70;11.18;;;15.30;99.90;;;;;;4914159;29;20021;-74
2021/09/08 00:09:17;;;;;;;12.20;10.73;;;15.30;99.90;;;;;;4913468;29;20032;-74
2021/09/08 00:11:43;;;;;;;12.02;10.50;;;15.40;99.90;;;;;;4914539;29;20043;-74
2021/09/08 00:14:08;;;;;;;13.02;11.15;;;15.40;99.90;;;;;;4914338;29;20399;-75
2021/09/08 00:16:34;;;;;;;12.68;10.50;;;15.30;99.90;;;;;;4915243;29;20035;-74
2021/09/08 00:19:00;;;;;;;12.95;11.05;;;15.30;99.90;;;;;;4914214;29;20038;-74
2021/09/08 00:21:26;;;;;;;12.60;10.63;;;15.30;99.90;;;;;;4914497;29;20449;-75
2021/09/08 00:23:51;;;;;;;12.45;10.40;;;15.30;99.90;;;;;;4914972;29;20469;-75
2021/09/08 00:26:17;;;;;;;14.05;11.52;;;15.30;99.90;;;;;;4913979;29;20028;-75
2021/09/08 00:28:42;;;;;;;15.98;11.65;;;15.20;99.90;;;;;;4914232;29;20028;-74
2021/09/08 00:31:08;;;;;;;14.02;11.15;;;15.20;99.90;;;;;;4913483;29;20421;-75
2021/09/08 00:33:33;;;;;;;12.68;10.68;;;15.20;99.90;;;;;;4915770;29;20024;-76
2021/09/08 00:35:59;;;;;;;14.65;11.38;;;15.20;99.90;;;;;;4913967;29;20031;-74
2021/09/08 00:38:25;;;;;;;12.48;10.63;;;15.20;99.90;;;;;;4913412;29;20038;-75
2021/09/08 00:40:54;;;;;;;12.35;10.73;;;15.20;99.90;;;;;;4914205;29;20031;-76
2021/09/08 00:43:19;;;;;;;12.40;10.70;;;15.10;99.90;;;;;;4914328;29;20020;-76
2021/09/08 00:45:53;;;;;;;13.25;10.85;;;15.10;99.90;;;;;;4914695;29;20496;-74
2021/09/08 00:48:19;;;;;;;13.50;11.25;;;15.10;99.90;;;;;;4913872;29;20028;-74
2021/09/08 00:50:46;;;;;;;12.20;10.90;;;15.10;99.90;;;;;;4913286;29;20162;-75
2021/09/08 00:53:14;;;;;;;12.60;11.00;;;15.00;99.90;;;;;;4914206;29;20496;-76
2021/09/08 00:55:40;;;;;;;12.20;10.90;;;15.00;99.90;;;;;;4914348;29;20028;-75
2021/09/08 00:58:05;;;;;;;14.07;11.85;;;15.00;99.90;;;;;;4912921;29;20020;-75
2021/09/08 01:00:31;;;;;;;12.93;11.18;;;15.00;99.90;;;;;;4914262;29;20029;-76
2021/09/08 01:02:57;;;;;;;11.98;10.32;;;15.00;99.90;;;;;;4914025;29;20035;-75
2021/09/08 01:05:24;;;;;;;13.45;11.18;;;15.00;99.90;;;;;;4913449;29;20024;-75
2021/09/08 01:07:49;;;;;;;13.07;11.38;;;14.90;99.90;;;;;;4913933;29;20384;-75
2021/09/08 01:10:15;;;;;;;13.55;11.25;;;14.90;99.90;;;;;;4913949;29;20032;-76
2021/09/08 01:12:41;;;;;;;11.88;10.13;;;14.90;99.90;;;;;;4913232;29;20028;-75
2021/09/08 01:15:07;;;;;;;12.23;10.90;;;14.90;99.90;;;;;;4915162;29;20032;-75
2021/09/08 01:17:33;;;;;;;17.45;11.80;;;14.90;99.90;;;;;;4913945;29;20035;-75
2021/09/08 01:19:59;;;;;;;13.32;11.23;;;14.80;99.90;;;;;;4913047;29;20036;-75
2021/09/08 01:22:30;;;;;;;13.48;10.90;;;14.90;99.90;;;;;;4918182;29;20036;-76
2021/09/08 01:24:56;;;;;;;12.27;10.98;;;14.90;99.90;;;;;;4917376;29;20473;-75
2021/09/08 01:27:23;;;;;;;13.10;11.43;;;14.80;99.90;;;;;;4916648;29;20031;-75
2021/09/08 01:29:49;;;;;;;14.38;11.57;;;14.80;99.90;;;;;;4917117;29;20036;-75
2021/09/08 01:32:15;;;;;;;13.65;11.88;;;14.80;99.90;;;;;;4918765;29;20024;-75
2021/09/08 01:34:40;;;;;;;13.80;11.82;;;14.80;99.90;;;;;;4916638;29;20488;-75
2021/09/08 01:37:06;;;;;;;13.63;11.30;;;14.80;99.90;;;;;;4918378;29;20550;-75
2021/09/08 01:39:31;;;;;;;15.55;11.88;;;14.80;99.90;;;;;;4917469;29;20043;-75
2021/09/08 01:41:57;;;;;;;13.07;11.48;;;14.80;99.90;;;;;;4916000;29;20028;-79
2021/09/08 01:44:24;;;;;;;16.17;12.52;;;14.80;99.90;;;;;;4917128;29;20028;-75
2021/09/08 01:46:53;;;;;;;14.30;12.02;;;14.80;99.90;;;;;;4916229;29;20497;-75
2021/09/08 01:49:18;;;;;;;13.07;11.40;;;14.80;99.90;;;;;;4917615;29;20393;-75
2021/09/08 01:51:44;;;;;;;13.60;12.05;;;14.80;99.90;;;;;;4918261;29;20028;-75
2021/09/08 01:54:10;;;;;;;14.93;12.27;;;14.80;99.90;;;;;;4917516;29;20028;-78
2021/09/08 01:56:36;;;;;;;14.25;11.95;;;14.80;99.90;;;;;;4918327;29;20099;-75
2021/09/08 01:59:01;;;;;;;15.82;12.52;;;14.80;99.90;;;;;;4917793;29;20043;-75
2021/09/08 02:01:27;;;;;;;13.82;11.60;;;14.80;99.90;;;;;;4916217;29;20511;-75
2021/09/08 02:03:52;;;;;;;13.20;11.57;;;14.70;99.90;;;;;;4918038;29;20055;-74
2021/09/08 02:06:24;;;;;;;17.42;12.23;;;14.70;99.90;;;;;;4916702;29;20021;-75
2021/09/08 02:08:55;;;;;;;14.10;12.27;;;14.70;99.90;;;;;;4915957;29;20063;-75
2021/09/08 02:11:20;;;;;;;15.50;12.85;;;14.70;99.90;;;;;;4916666;29;20032;-75
2021/09/08 02:13:47;;;;;;;16.30;13.55;;;14.70;99.90;;;;;;4916356;29;20134;-76
2021/09/08 02:16:15;;;;;;;15.25;13.25;;;14.70;99.90;;;;;;4915981;29;20067;-76
2021/09/08 02:18:41;;;;;;;13.77;12.27;;;14.70;99.90;;;;;;4916729;29;20495;-75
2021/09/08 02:21:07;;;;;;;14.73;12.98;;;14.70;99.90;;;;;;4916644;29;20043;-76
2021/09/08 02:23:32;;;;;;;14.30;12.40;;;14.70;99.90;;;;;;4915980;29;20473;-75
2021/09/08 02:25:58;;;;;;;13.60;12.18;;;14.70;99.90;;;;;;4916159;29;20067;-76
2021/09/08 02:28:23;;;;;;;15.70;13.43;;;14.70;99.90;;;;;;4916331;29;20508;-75
2021/09/08 02:30:49;;;;;;;15.75;13.23;;;14.60;99.90;;;;;;4915619;29;20071;-75
2021/09/08 02:33:16;;;;;;;16.60;13.30;;;14.60;99.90;;;;;;4917120;29;20024;-75
2021/09/08 02:35:42;;;;;;;14.98;13.38;;;14.60;99.90;;;;;;4916169;29;20380;-75
2021/09/08 02:38:07;;;;;;;14.52;12.82;;;14.60;99.90;;;;;;4916312;29;20024;-78
2021/09/08 02:40:33;;;;;;;17.00;13.27;;;14.60;99.90;;;;;;4915973;29;20032;-75
2021/09/08 02:42:58;;;;;;;17.42;13.43;;;14.50;99.90;;;;;;4916767;29;20028;-75
2021/09/08 02:45:24;;;;;;;14.43;12.90;;;14.50;99.90;;;;;;4915463;29;20632;-75
2021/09/08 02:47:49;;;;;;;16.98;13.60;;;14.50;99.90;;;;;;4917470;29;20032;-76
2021/09/08 02:50:15;;;;;;;16.67;14.00;;;14.50;99.90;;;;;;4915107;29;20493;-76
2021/09/08 02:52:41;;;;;;;15.48;13.50;;;14.40;99.90;;;;;;4915686;29;20028;-75
2021/09/08 02:55:07;;;;;;;15.00;13.48;;;14.40;99.90;;;;;;4916901;29;20032;-74
2021/09/08 02:57:33;;;;;;;15.00;13.27;;;14.40;99.90;;;;;;4915367;29;20098;-75
2021/09/08 02:59:58;;;;;;;17.98;14.93;;;14.40;99.90;;;;;;4915388;29;20091;-75
2021/09/08 03:02:24;;;;;;;16.95;13.38;;;14.40;99.90;;;;;;4916020;29;20031;-75
2021/09/08 03:04:49;;;;;;;17.48;12.98;;;14.40;99.90;;;;;;4916301;29;20024;-75
2021/09/08 03:07:15;;;;;;;16.58;13.70;;;14.30;99.90;;;;;;4915778;29;20031;-76
2021/09/08 03:09:40;;;;;;;15.50;13.00;;;14.30;99.90;;;;;;4916523;29;20044;-76
2021/09/08 03:12:06;;;;;;;15.48;13.88;;;14.30;99.90;;;;;;4916063;29;20028;-75
2021/09/08 03:14:32;;;;;;;16.38;13.88;;;14.30;99.90;;;;;;4916460;29;20021;-77
2021/09/08 03:16:57;;;;;;;16.08;13.60;;;14.40;99.90;;;;;;4916260;29;20477;-75
2021/09/08 03:19:23;;;;;;;16.38;14.35;;;14.40;99.90;;;;;;4914744;29;20362;-79
2021/09/08 03:21:48;;;;;;;16.95;14.48;;;14.40;99.90;;;;;;4915410;29;20024;-75
2021/09/08 03:24:14;;;;;;;15.23;13.63;;;14.40;99.90;;;;;;4916649;29;20020;-74
2021/09/08 03:26:40;;;;;;;16.80;14.18;;;14.30;99.90;;;;;;4914662;29;20119;-75
2021/09/08 03:29:05;;;;;;;16.60;14.07;;;14.30;99.90;;;;;;4915093;29;20024;-74
2021/09/08 03:31:31;;;;;;;18.60;14.80;;;14.30;99.90;;;;;;4916269;29;20096;-78
2021/09/08 03:33:56;;;;;;;19.35;15.27;;;14.30;99.90;;;;;;4914667;29;20028;-75
2021/09/08 03:36:22;;;;;;;18.98;14.30;;;14.30;99.90;;;;;;4915201;29;20028;-75
2021/09/08 03:38:47;;;;;;;17.58;15.00;;;14.20;99.90;;;;;;4916287;29;20024;-75
2021/09/08 03:41:13;;;;;;;17.75;14.48;;;14.20;99.90;;;;;;4915738;29;20024;-75
2021/09/08 03:43:39;;;;;;;17.45;13.82;;;14.20;99.90;;;;;;4914495;29;20421;-75
2021/09/08 03:46:06;;;;;;;19.95;14.68;;;14.20;99.90;;;;;;4914426;29;20052;-75
2021/09/08 03:48:32;;;;;;;17.20;14.73;;;14.20;99.90;;;;;;4915609;29;20032;-75
2021/09/08 03:50:58;;;;;;;19.38;15.88;;;14.20;99.90;;;;;;4914883;29;20071;-75
2021/09/08 03:53:24;;;;;;;17.55;15.10;;;14.10;99.90;;;;;;4914404;29;20048;-75
2021/09/08 03:55:49;;;;;;;17.73;14.00;;;14.10;99.90;;;;;;4914797;29;20034;-75
2021/09/08 03:58:15;;;;;;;20.02;15.65;;;14.10;99.90;;;;;;4915671;29;20028;-75
2021/09/08 04:00:40;;;;;;;19.25;15.65;;;14.10;99.90;;;;;;4914001;29;20555;-75
2021/09/08 04:03:06;;;;;;;17.30;15.02;;;14.10;99.90;;;;;;4915599;29;20354;-76
2021/09/08 04:05:32;;;;;;;18.02;14.38;;;14.10;99.90;;;;;;4914832;29;20028;-75
2021/09/08 04:07:57;;;;;;;17.52;14.52;;;14.10;99.90;;;;;;4914802;29;20028;-75
2021/09/08 04:10:23;;;;;;;17.77;14.57;;;14.10;99.90;;;;;;4914625;29;20036;-79
2021/09/08 04:12:49;;;;;;;16.83;14.38;;;14.00;99.90;;;;;;4915906;29;20185;-85
2021/09/08 04:15:15;;;;;;;17.33;14.75;;;14.00;99.90;;;;;;4915287;29;20032;-75
2021/09/08 04:17:41;;;;;;;17.35;15.35;;;14.00;99.90;;;;;;4915521;29;20026;-78
2021/09/08 04:20:08;;;;;;;17.50;15.45;;;14.00;99.90;;;;;;4914256;29;20024;-79
2021/09/08 04:22:34;;;;;;;19.85;15.70;;;14.00;99.90;;;;;;4914213;29;20389;-76
2021/09/08 04:24:59;;;;;;;17.33;14.80;;;13.90;99.90;;;;;;4915563;29;20072;-77
2021/09/08 04:27:25;;;;;;;19.67;14.65;;;13.90;99.90;;;;;;4914218;29;20028;-76
2021/09/08 04:29:51;;;;;;;16.95;14.38;;;13.90;99.90;;;;;;4915040;29;20477;-76
2021/09/08 04:32:16;;;;;;;18.33;14.80;;;13.80;99.90;;;;;;4909431;29;20035;-75
2021/09/08 04:34:42;;;;;;;16.63;14.60;;;13.90;99.90;;;;;;4897025;29;20127;-75
2021/09/08 04:37:07;;;;;;;19.45;14.63;;;13.80;99.90;;;;;;4894804;29;20064;-78
2021/09/08 04:39:33;;;;;;;18.20;16.08;;;13.90;99.90;;;;;;4901373;29;20029;-75
2021/09/08 04:41:58;;;;;;;17.30;15.00;;;13.80;99.90;;;;;;4899767;29;20071;-84
2021/09/08 04:44:24;;;;;;;16.23;14.52;;;13.80;99.90;;;;;;4903808;29;20043;-76
2021/09/08 04:46:50;;;;;;;19.60;16.00;;;13.80;99.90;;;;;;4902787;29;20063;-76
2021/09/08 04:49:16;;;;;;;18.20;15.07;;;13.80;99.90;;;;;;4905160;29;20455;-75
2021/09/08 04:51:41;;;;;;;17.77;14.55;;;13.80;99.90;;;;;;4903077;29;20043;-75
2021/09/08 04:54:07;;;;;;;20.20;15.88;;;13.80;99.90;;;;;;4904354;29;20115;-76
2021/09/08 04:56:33;;;;;;;17.77;15.45;;;13.80;99.90;;;;;;4904387;29;20033;-75
2021/09/08 04:58:58;;;;;;;17.98;15.43;;;13.80;99.90;;;;;;4904004;29;20032;-75
2021/09/08 05:01:24;;;;;;;17.85;15.95;;;13.80;99.90;;;;;;4908916;29;20028;-77
2021/09/08 05:03:50;;;;;;;20.02;15.80;;;13.80;99.90;;;;;;4901437;29;20044;-75
2021/09/08 05:06:15;;;;;;;17.65;15.30;;;13.80;99.90;;;;;;4899821;29;20112;-76
2021/09/08 05:08:41;;;;;;;17.85;14.65;;;13.70;99.90;;;;;;4898813;29;20161;-75
2021/09/08 05:11:06;;;;;;;18.10;14.68;;;13.70;99.90;;;;;;4901830;29;20516;-76
2021/09/08 05:13:32;;;;;;;16.40;14.38;;;13.70;99.90;;;;;;4912546;29;20036;-75
2021/09/08 05:15:57;;;;;;;18.60;15.88;;;13.70;99.90;;;;;;4907917;29;20024;-75
2021/09/08 05:18:23;;;;;;;19.05;15.63;;;13.70;99.90;;;;;;4930752;29;20035;-75
2021/09/08 05:20:49;;;;;;;17.70;15.88;;;13.80;99.90;;;;;;4918675;29;20036;-75
2021/09/08 05:23:14;;;;;;;18.33;15.60;;;13.80;99.90;;;;;;4917538;29;20540;-76
2021/09/08 05:25:40;;;;;;;17.73;15.75;;;13.80;99.90;;;;;;4917060;29;20024;-75
2021/09/08 05:28:06;;;;;;;18.98;16.15;;;13.80;99.90;;;;;;4913250;29;20052;-75
2021/09/08 05:30:31;;;;;;;16.75;14.82;;;13.80;99.90;;;;;;4903691;29;20080;-74
2021/09/08 05:32:57;;;;;;;19.85;15.65;;;13.80;99.90;;;;;;4917546;29;20024;-75
2021/09/08 05:35:22;;;;;;;17.65;14.70;;;13.80;99.90;;;;;;4918396;29;20047;-76
2021/09/08 05:37:48;;;;;;;16.25;14.55;;;13.90;99.90;;;;;;4918230;29;20031;-75
2021/09/08 05:40:13;;;;;;;17.30;14.60;;;13.90;99.90;;;;;;4917809;29;20111;-76
2021/09/08 05:42:39;;;;;;;17.85;15.40;;;13.90;99.90;;;;;;4917303;29;20103;-75
2021/09/08 05:45:06;;;;;;;19.48;17.00;;;13.90;99.90;;;;;;4916531;29;20024;-75
2021/09/08 05:47:31;;;;;;;18.30;15.00;;;13.90;99.90;;;;;;4916668;29;20024;-76
2021/09/08 05:49:57;;;;;;;17.98;15.55;;;14.00;99.90;;;;;;4916596;29;20055;-76
2021/09/08 05:52:22;;;;;;;18.50;14.73;;;14.00;99.90;;;;;;4916955;29;20051;-75
2021/09/08 05:54:48;;;;;;;16.77;14.98;;;14.00;99.90;;;;;;4916175;29;20503;-75
2021/09/08 05:57:14;;;;;;;19.25;16.15;;;14.00;99.90;;;;;;4917129;29;20032;-75
2021/09/08 05:59:39;;;;;;;18.73;14.73;;;14.10;99.90;;;;;;4917088;29;20017;-75
2021/09/08 06:02:05;;;;;;;18.67;15.60;;;14.10;99.90;;;;;;4909105;29;20413;-74
2021/09/08 06:04:31;;;;;;;17.35;15.55;;;14.10;99.90;;;;;;4910581;29;20021;-77
2021/09/08 06:06:57;;;;;;;18.77;15.55;;;14.20;99.90;;;;;;4915338;29;20047;-76
2021/09/08 06:09:23;;;;;;;17.95;16.02;;;14.30;99.90;;;;;;4914639;29;20032;-75
2021/09/08 06:11:48;;;;;;;18.80;16.35;;;14.30;99.90;;;;;;4898880;29;20049;-74
2021/09/08 06:14:14;;;;;;;17.33;14.55;;;14.30;99.90;;;;;;4903574;29;20020;-73
2021/09/08 06:16:40;;;;;;;19.38;15.82;;;14.40;99.90;;;;;;4916198;29;20036;-73
2021/09/08 06:19:06;;;;;;;18.42;16.15;;;14.40;99.90;;;;;;4916715;29;20028;-74
2021/09/08 06:21:32;;;;;;;21.48;17.10;;;14.50;99.90;;;;;;4898630;29;20032;-72
2021/09/08 06:23:57;;;;;;;17.50;14.93;;;14.60;99.90;;;;;;4898429;29;20401;-73
2021/09/08 06:26:24;;;;;;;17.73;14.93;;;14.70;99.90;;;;;;4898756;29;20032;-73
2021/09/08 06:28:51;;;;;;;18.08;15.82;;;14.70;99.90;;;;;;4913552;29;20021;-75
2021/09/08 06:31:17;;;;;;;18.33;15.48;;;14.70;99.90;;;;;;4909773;29;20036;-70
2021/09/08 06:33:43;;;;;;;18.35;15.43;;;14.80;99.90;;;;;;4915674;29;20115;-69
2021/09/08 06:36:09;;;;;;;18.13;15.27;;;14.80;99.90;;;;;;4914165;29;20521;-73
2021/09/08 06:38:34;;;;;;;17.33;15.05;;;14.90;99.90;;;;;;4897021;29;20028;-71
2021/09/08 06:41:01;;;;;;;19.63;16.40;;;15.00;99.90;;;;;;4899869;29;20028;-73
2021/09/08 06:43:27;;;;;;;17.95;15.65;;;15.00;99.90;;;;;;4919974;29;20074;-72
2021/09/08 06:45:52;;;;;;;19.42;17.17;;;15.10;99.90;;;;;;4909573;29;20497;-72
2021/09/08 06:48:18;;;;;;;18.85;16.30;;;15.20;99.90;;;;;;4896685;29;20107;-73
2021/09/08 06:50:44;;;;;;;18.65;15.82;;;15.30;99.90;;;;;;4899890;29;20052;-71
2021/09/08 06:53:09;;;;;;;18.80;15.95;;;15.40;99.90;;;;;;4897773;29;20030;-72
2021/09/08 06:55:35;;;;;;;16.55;14.45;;;15.40;99.90;;;;;;4896885;29;20031;-76
2021/09/08 06:58:00;;;;;;;17.63;15.15;;;15.50;99.90;;;;;;4897965;29;20116;-71
2021/09/08 07:00:26;;;;;;;19.80;14.85;;;15.60;99.90;;;;;;4898164;29;20032;-71
2021/09/08 07:02:51;;;;;;;17.58;15.15;;;15.60;99.90;;;;;;4897838;29;20457;-71
2021/09/08 07:05:18;;;;;;;17.50;15.48;;;15.60;99.90;;;;;;4895873;29;20044;-81
2021/09/08 07:07:43;;;;;;;19.60;16.58;;;15.70;99.90;;;;;;4898446;29;20109;-85
2021/09/08 07:10:09;;;;;;;20.77;17.17;;;15.80;99.90;;;;;;4896562;29;20131;-71
2021/09/08 07:12:35;;;;;;;18.00;15.15;;;15.90;99.90;;;;;;4903674;29;20026;-77
2021/09/08 07:15:01;;;;;;;19.50;16.80;;;16.00;99.90;;;;;;4929202;29;20055;-81
2021/09/08 07:17:29;;;;;;;17.92;15.38;;;16.00;99.90;;;;;;4933910;29;20484;-81
2021/09/08 07:19:55;;;;;;;17.63;15.40;;;16.10;99.90;;;;;;4934562;29;20030;-72
2021/09/08 07:22:21;;;;;;;16.63;14.68;;;16.20;99.90;;;;;;4915612;29;20024;-77
2021/09/08 07:24:46;;;;;;;16.85;15.05;;;16.20;99.90;;;;;;4912924;29;20393;-73
2021/09/08 07:27:12;;;;;;;14.98;13.38;;;16.20;99.90;;;;;;4916568;29;20083;-71
2021/09/08 07:29:37;;;;;;;17.05;15.25;;;16.30;99.90;;;;;;4914938;29;20714;-75
2021/09/08 07:32:05;;;;;;;16.70;14.10;;;16.30;99.90;;;;;;4914068;29;20036;-79
2021/09/08 07:34:31;;;;;;;17.50;15.05;;;16.40;99.90;;;;;;4916828;29;20389;-84
2021/09/08 07:36:57;;;;;;;16.23;14.50;;;16.50;99.90;;;;;;4915144;29;20024;-81
2021/09/08 07:39:22;;;;;;;16.52;14.85;;;16.60;99.90;;;;;;4914830;29;20523;-74
2021/09/08 07:41:48;;;;;;;17.00;15.20;;;16.70;99.90;;;;;;4916000;29;20039;-80
2021/09/08 07:44:14;;;;;;;19.60;14.85;;;16.70;99.90;;;;;;4915049;29;20484;-79
2021/09/08 07:46:40;;;;;;;17.80;15.07;;;16.80;99.90;;;;;;4900515;29;20058;-82
2021/09/08 07:49:05;;;;;;;18.90;15.68;;;16.90;99.90;;;;;;4896937;29;20108;-71
2021/09/08 07:51:31;;;;;;;17.95;15.32;;;17.00;99.90;;;;;;4914094;29;20044;-71
2021/09/08 07:53:57;;;;;;;16.85;15.10;;;17.10;99.90;;;;;;4899325;29;20476;-74
2021/09/08 07:56:22;;;;;;;18.15;15.65;;;17.20;99.90;;;;;;4908664;29;20028;-78
2021/09/08 07:58:48;;;;;;;16.73;14.13;;;17.30;99.90;;;;;;4907238;29;20111;-69
2021/09/08 08:01:13;;;;;;;17.67;14.52;;;17.40;99.90;;;;;;4899082;29;20029;-70
2021/09/08 08:03:39;;;;;;;15.50;13.75;;;17.40;99.90;;;;;;4916196;29;20039;-75
2021/09/08 08:06:05;;;;;;;15.07;12.70;;;17.50;99.90;;;;;;4913988;29;20020;-75
2021/09/08 08:08:30;;;;;;;15.20;12.70;;;17.50;99.90;;;;;;4910845;29;20055;-77
2021/09/08 08:10:56;;;;;;;17.50;13.30;;;17.60;99.90;;;;;;4896240;29;20552;-77
2021/09/08 08:13:21;;;;;;;17.52;13.73;;;17.50;99.90;;;;;;4899751;29;20021;-75
2021/09/08 08:15:47;;;;;;;18.35;14.38;;;17.60;99.90;;;;;;4905078;29;20032;-77
2021/09/08 08:18:13;;;;;;;17.90;13.40;;;17.70;99.90;;;;;;4914043;29;20024;-79
2021/09/08 08:20:39;;;;;;;14.27;12.55;;;17.70;99.90;;;;;;4911581;29;20118;-74
2021/09/08 08:23:05;;;;;;;17.38;12.40;;;17.80;99.90;;;;;;4902213;29;20434;-75
2021/09/08 08:25:31;;;;;;;13.93;12.40;;;17.80;99.90;;;;;;4897736;29;20040;-77
2021/09/08 08:27:58;;;;;;;14.45;12.40;;;17.90;99.90;;;;;;4913066;29;20024;-74
2021/09/08 08:30:24;;;;;;;14.98;13.02;;;18.00;99.90;;;;;;4896511;29;20131;-75
2021/09/08 08:32:50;;;;;;;18.05;12.30;;;18.00;99.90;;;;;;4895364;29;20028;-71
2021/09/08 08:35:16;;;;;;;16.48;12.60;;;18.20;99.90;;;;;;4895920;29;20076;-72
2021/09/08 08:37:42;;;;;;;15.27;13.68;;;18.20;99.90;;;;;;4896113;29;20033;-73
2021/09/08 08:40:10;;;;;;;15.15;12.85;;;18.30;99.90;;;;;;4896241;29;20029;-71
2021/09/08 08:42:36;;;;;;;15.75;12.93;;;18.40;99.90;;;;;;4895958;29;20039;-77
2021/09/08 08:45:03;;;;;;;14.65;13.15;;;18.50;99.90;;;;;;4895493;29;20525;-72
2021/09/08 08:47:30;;;;;;;14.60;13.10;;;18.50;99.90;;;;;;4896253;29;20044;-73
2021/09/08 08:49:56;;;;;;;14.07;12.23;;;18.60;99.90;;;;;;4894089;29;20037;-71
2021/09/08 08:52:22;;;;;;;14.15;11.98;;;18.70;99.90;;;;;;4897029;29;20040;-74
2021/09/08 08:54:48;;;;;;;12.88;11.48;;;18.80;99.90;;;;;;4894846;29;20021;-72
2021/09/08 08:57:15;;;;;;;14.35;12.43;;;18.90;99.90;;;;;;4896434;29;20115;-75
2021/09/08 08:59:43;;;;;;;13.45;11.20;;;19.00;99.90;;;;;;4913658;29;20025;-75
2021/09/08 09:02:22;;;;;;;15.23;13.63;;;19.00;99.90;;;;;;4894394;29;20032;-79
2021/09/08 09:04:53;;;;;;;16.20;12.05;;;19.10;99.90;;;;;;4905583;29;20047;-81
2021/09/08 09:07:56;;;;;;;23.50;13.40;;;19.20;99.90;;;;;;4913203;29;20029;-81
2021/09/08 09:10:28;;;;;;;12.80;11.50;;;19.30;99.90;;;;;;4907845;29;20533;-76
2021/09/08 09:12:53;;;;;;;14.77;12.80;;;19.40;99.90;;;;;;4895856;29;20103;-74
2021/09/08 09:15:21;;;;;;;13.88;11.93;;;19.50;99.90;;;;;;4906735;29;20168;-71
2021/09/08 09:17:48;;;;;;;15.52;13.48;;;19.50;99.90;;;;;;4896591;29;20537;-72
2021/09/08 09:20:15;;;;;;;15.52;13.82;;;19.60;99.90;;;;;;4897971;29;20089;-75
2021/09/08 09:22:43;;;;;;;12.02;10.77;;;19.70;99.90;;;;;;4896279;29;20366;-70
2021/09/08 09:25:20;;;;;;;13.57;12.10;;;19.80;99.90;;;;;;4894563;29;20409;-73
2021/09/08 09:27:55;;;;;;;16.00;13.98;;;19.80;99.90;;;;;;4913500;29;20031;-70
2021/09/08 09:30:27;;;;;;;16.77;13.10;;;19.90;99.90;;;;;;4914699;29;20477;-71
2021/09/08 09:32:54;;;;;;;14.85;11.85;;;20.10;99.90;;;;;;4909022;29;20390;-70
2021/09/08 09:35:24;;;;;;;14.43;12.55;;;20.20;99.90;;;;;;4913500;29;20024;-71
2021/09/08 09:37:55;;;;;;;13.10;11.75;;;20.30;99.90;;;;;;4913136;29;20179;-71
2021/09/08 09:40:25;;;;;;;;;;;20.40;99.90;;;;;;4913464;29;20056;-71
2021/09/08 09:42:51;;;;;;;12.15;10.73;;;20.40;99.90;;;;;;4915334;29;19943;-71
2021/09/08 09:45:16;;;;;;;16.63;11.93;;;20.40;99.90;;;;;;4917287;29;20032;-71
2021/09/08 09:47:45;;;;;;;14.23;11.00;;;20.50;99.90;;;;;;4917728;29;20505;-70
2021/09/08 09:50:19;;;;;;;14.40;11.68;;;20.60;99.90;;;;;;4916936;29;20044;-70
2021/09/08 09:52:51;;;;;;;13.23;10.98;;;20.70;99.90;;;;;;4913789;29;20056;-70
2021/09/08 09:55:17;;;;;;;13.23;11.73;;;20.70;99.90;;;;;;4900782;29;20037;-74
2021/09/08 09:57:43;;;;;;;13.73;12.30;;;20.80;99.90;;;;;;4908161;29;20028;-75
2021/09/08 10:00:10;;;;;;;16.88;12.48;;;20.90;99.90;;;;;;4899322;29;20100;-71
2021/09/08 10:02:35;;;;;;;14.00;11.50;;;21.00;99.90;;;;;;4898713;29;20028;-72
2021/09/08 10:05:03;;;;;;;13.93;11.13;;;21.10;99.90;;;;;;4917062;29;20058;-76
2021/09/08 10:07:28;;;;;;;14.55;10.43;;;21.20;99.90;;;;;;4917203;29;20024;-75
2021/09/08 10:10:02;;;;;;;12.23;10.93;;;21.20;99.90;;;;;;4912630;29;20473;-74
2021/09/08 10:12:34;;;;;;;14.40;10.27;;;21.30;99.90;;;;;;4913091;29;20032;-73
2021/09/08 10:15:02;;;;;;;14.30;11.60;;;21.30;99.90;;;;;;4913393;29;20028;-75
2021/09/08 10:17:42;;;;;;;12.43;10.52;;;21.30;99.90;;;;;;4906818;29;20028;-73
2021/09/08 10:20:09;;;;;;;14.40;10.52;;;21.40;99.90;;;;;;4906165;29;20027;-83
2021/09/08 10:22:39;;;;;;;13.02;10.65;;;21.40;99.90;;;;;;4916978;29;20055;-73
2021/09/08 10:25:13;;;;;;;11.88;9.50;;;21.40;99.90;;;;;;4918819;29;20035;-73
2021/09/08 10:27:40;;;;;;;15.15;10.00;;;21.50;99.90;;;;;;4918931;29;20029;-73
2021/09/08 10:30:07;;;;;;;10.82;9.57;;;21.60;99.90;;;;;;4918521;29;20024;-72
2021/09/08 10:32:33;;;;;;;11.57;9.98;;;21.60;99.90;;;;;;4918057;29;20063;-72
2021/09/08 10:35:08;;;;;;;10.85;9.75;;;21.70;99.90;;;;;;4915497;29;20393;-71
2021/09/08 10:37:34;;;;;;;11.88;9.57;;;21.80;99.90;;;;;;4916405;29;20028;-72
2021/09/08 10:39:59;;;;;;;12.93;10.20;;;21.80;99.90;;;;;;4916071;29;20369;-73
2021/09/08 10:42:46;;;;;;;11.77;10.57;;;21.90;99.90;;;;;;4916879;29;20529;-72
2021/09/08 10:45:51;;;;;;;13.23;10.52;;;22.00;99.90;;;;;;4916328;29;20028;-72
2021/09/08 10:48:45;;;;;;;11.30;9.70;;;22.10;99.90;;;;;;4905757;29;20032;-81
2021/09/08 10:51:43;;;;;;;10.55;9.45;;;22.20;99.90;;;;;;4917414;29;20059;-72
2021/09/08 10:54:09;;;;;;;10.80;9.45;;;22.20;99.90;;;;;;4905318;29;20047;-72
2021/09/08 10:56:45;;;;;;;12.45;10.10;;;22.30;99.90;;;;;;4916361;29;20028;-74
2021/09/08 10:59:11;;;;;;;13.15;9.45;;;22.40;99.90;;;;;;4916292;29;20020;-72
2021/09/08 11:01:37;;;;;;;13.45;8.95;;;22.40;99.90;;;;;;4917374;29;20028;-72
2021/09/08 11:04:03;;;;;;;11.15;9.52;;;22.40;99.90;;;;;;4916301;29;20091;-76
2021/09/08 11:06:40;;;;;;;11.07;9.27;;;22.40;99.90;;;;;;4915852;29;20477;-72
2021/09/08 11:09:09;;;;;;;15.18;10.40;;;22.50;99.90;;;;;;4917149;29;20032;-72
2021/09/08 11:11:57;;;;;;;10.77;9.35;;;22.70;99.90;;;;;;4916219;29;20043;-72
2021/09/08 11:14:53;;;;;;;10.48;9.43;;;22.80;99.90;;;;;;4916074;29;20039;-72
2021/09/08 11:17:23;;;;;;;10.05;8.27;;;22.90;99.90;;;;;;4898846;29;20048;-71
2021/09/08 11:19:54;;;;;;;9.98;8.18;;;22.90;99.90;;;;;;4915513;29;20122;-72
2021/09/08 11:22:19;;;;;;;10.02;8.57;;;22.90;99.90;;;;;;4916928;29;20032;-72
2021/09/08 11:24:45;;;;;;;10.38;8.70;;;22.90;99.90;;;;;;4914824;29;20488;-72
2021/09/08 11:27:11;;;;;;;10.43;8.60;;;22.90;99.90;;;;;;4916688;29;20038;-72
2021/09/08 11:29:36;;;;;;;9.77;8.77;;;22.90;99.90;;;;;;4916706;29;20052;-71
2021/09/08 11:32:02;;;;;;;14.27;8.63;;;23.00;99.90;;;;;;4914401;29;20040;-71
2021/09/08 11:34:29;;;;;;;10.32;9.20;;;23.00;99.90;;;;;;4916455;29;20020;-72
2021/09/08 11:36:57;;;;;;;10.13;9.13;;;23.00;99.90;;;;;;4915277;29;20127;-72
2021/09/08 11:39:25;;;;;;;9.90;8.82;;;23.10;99.90;;;;;;4917652;29;20151;-72
2021/09/08 11:42:04;;;;;;;8.50;7.70;;;23.20;99.90;;;;;;4918335;29;20032;-73
2021/09/08 11:44:29;;;;;;;10.00;8.63;;;23.30;99.90;;;;;;4917275;29;20021;-72
2021/09/08 11:46:56;;;;;;;9.93;8.93;;;23.20;99.90;;;;;;4918045;29;20060;-74
2021/09/08 11:49:22;;;;;;;9.90;7.07;;;23.30;99.90;;;;;;4918399;29;20067;-76
2021/09/08 11:51:47;;;;;;;8.93;8.05;;;23.40;99.90;;;;;;4916466;29;20040;-74
2021/09/08 11:54:19;;;;;;;9.65;7.85;;;23.40;99.90;;;;;;4917612;29;20469;-73
2021/09/08 11:56:56;;;;;;;12.38;8.63;;;23.40;99.90;;;;;;4917618;29;20119;-81
2021/09/08 11:59:33;;;;;;;9.05;7.68;;;23.50;99.90;;;;;;4917835;29;20027;-73
2021/09/08 12:02:00;;;;;;;9.85;8.18;;;23.50;99.90;;;;;;4917292;29;20031;-82
2021/09/08 12:04:28;;;;;;;10.63;8.25;;;23.50;99.90;;;;;;4917732;29;20101;-71
2021/09/08 12:07:03;;;;;;;8.57;7.32;;;23.60;99.90;;;;;;4915520;29;20020;-72
2021/09/08 12:09:40;;;;;;;8.80;7.90;;;23.70;99.90;;;;;;4918082;29;20021;-72
2021/09/08 12:12:09;;;;;;;9.00;7.93;;;23.70;99.90;;;;;;4918050;29;20160;-73
2021/09/08 12:14:35;;;;;;;7.72;7.00;;;23.70;99.90;;;;;;4916456;29;20020;-72
2021/09/08 12:17:12;;;;;;;8.30;7.50;;;23.70;99.90;;;;;;4915129;29;20385;-75
2021/09/08 12:19:46;;;;;;;8.95;7.70;;;23.80;99.90;;;;;;4919367;29;20024;-72
2021/09/08 12:22:17;;;;;;;8.23;6.88;;;23.90;99.90;;;;;;4916799;29;20461;-71
2021/09/08 12:24:49;;;;;;;9.13;6.97;;;23.90;99.90;;;;;;4914954;29;20043;-72
2021/09/08 12:27:35;;;;;;;8.68;7.07;;;23.90;99.90;;;;;;4914453;29;20070;-72
2021/09/08 12:30:04;;;;;;;8.43;7.53;;;23.90;99.90;;;;;;4916435;29;20059;-72